Aérodrome :
LOGIN :

S'inscrire | Disclaimer

   EN    FR    IT 

 










Légende :    VFR   VFR Marginal   IFR   IFR Intensif   IFR Très Intensif
Visi : 
Plafond : 
>= 8 km
>= 3000ft
5 à 8 km
1000 à 3000 ft
1500m à 5 km
500 à 1000 ft
800 à 1500m
200 à 500 ft
< 800m
< 200 ft
Symboles :   Orages  Brouillard  Fortes neiges  Fortes précipitations  Vent > 20 kt
SIGMETs :   Divers  Orages  Givrage  Turbulence  Onde Orograph.  Cendres Volcan.






- Altitude de l'aérodrome : -15 ft
- Code IATA : RTM


EHRD - Rotterdam Zestienhoven

DERNIER METAR :
  • 230125Z AUTO 23009KT 210V290 9999 BKN016 OVC021 19/16 Q1015 NOSIG

METARs EXPIRÉS :
  • 230055Z AUTO 23010KT 190V260 9999 SCT016 BKN020 OVC023 19/16 Q1015 NOSIG
  • 230025Z AUTO 23012KT 200V260 9999 BKN016/// BKN020/// OVC025/// 20/16 Q1015 NOSIG
  • 222355Z AUTO 21012KT 170V240 9999 SCT016/// BKN019/// OVC023/// 20/16 Q1015 NOSIG
  • 222325Z AUTO 22014KT 190V270 9999 FEW017 BKN022 OVC026 20/16 Q1016 NOSIG
  • 222255Z AUTO 22011KT 9999 SCT019 BKN022 OVC026 20/16 Q1016 NOSIG
  • 222225Z AUTO 21012KT 180V240 9999 FEW017 OVC029 20/16 Q1016 NOSIG
  • 222155Z AUTO 21008KT 170V250 9999 FEW019 BKN023 OVC026 20/17 Q1016 NOSIG
  • 222125Z AUTO 22014KT 180V250 9999 FEW017 SCT022 BKN026 20/16 Q1016 NOSIG
  • 222055Z AUTO 22010G20KT 160V260 9999 SCT017 SCT021 BKN025 20/17 Q1016 NOSIG

TAF TAF EHRD
Valide du 23 à 00h jusqu'au 24 à 06h UTC


222309Z 2300/2406 22010KT 9999 SCT018 BKN030
TEMPO 2300/2304 7000 -DZRA SCT012 BKN018
TEMPO 2304/2314 6000 SHRA RA SCT008 BKN014 SCT018CB
PROB30
TEMPO 2305/2311 BKN008
BECMG 2306/2309 27010KT
BECMG 2310/2313 30012KT
TEMPO 2317/2322 BKN012
BECMG 2321/2324 32008KT



MET'MAP, la Météo Aéronautique d'un coup d'oeil ! - Copyright ORBIFLY Décembre 2007 - Disclaimer

ORBIFLY MET'MAP TEAM :

Programmation & Développement : Alexandra Zaïnal
Sur une idée originale de : Baudouin d'Aumeries
Soutien technique & logistique : Manuel Goepfert
Assistance : Marc-Olivier Méhu




SOURCES & CREDITS :

   NOAA